sensor_id;sensor_type;location;lat;lon;timestamp;pressure;altitude;pressure_sealevel;temperature;humidity
69214;BME280;56325;47.030;18.518;2023-04-07T00:02:18;100299.06;;;4.63;64.90
69214;BME280;56325;47.030;18.518;2023-04-07T00:04:53;100295.66;;;4.79;64.54
69214;BME280;56325;47.030;18.518;2023-04-07T00:07:30;100298.53;;;4.72;64.60
69214;BME280;56325;47.030;18.518;2023-04-07T00:10:18;100300.91;;;4.70;64.43
69214;BME280;56325;47.030;18.518;2023-04-07T00:12:52;100297.34;;;4.73;64.27
69214;BME280;56325;47.030;18.518;2023-04-07T00:15:27;100291.75;;;4.80;64.79
69214;BME280;56325;47.030;18.518;2023-04-07T00:18:02;100292.19;;;4.98;63.87
69214;BME280;56325;47.030;18.518;2023-04-07T00:20:36;100293.72;;;4.79;64.17
69214;BME280;56325;47.030;18.518;2023-04-07T00:23:12;100288.69;;;4.98;63.73
69214;BME280;56325;47.030;18.518;2023-04-07T00:25:47;100292.19;;;4.78;63.81
69214;BME280;56325;47.030;18.518;2023-04-07T00:28:22;100291.91;;;4.92;63.14
69214;BME280;56325;47.030;18.518;2023-04-07T00:30:56;100287.22;;;4.73;63.87
69214;BME280;56325;47.030;18.518;2023-04-07T00:33:31;100275.69;;;4.85;63.71
69214;BME280;56325;47.030;18.518;2023-04-07T00:36:06;100281.50;;;4.87;63.24
69214;BME280;56325;47.030;18.518;2023-04-07T00:38:41;100284.03;;;4.98;62.80
69214;BME280;56325;47.030;18.518;2023-04-07T00:41:16;100275.97;;;4.91;63.04
69214;BME280;56325;47.030;18.518;2023-04-07T00:43:51;100275.97;;;4.91;63.49
69214;BME280;56325;47.030;18.518;2023-04-07T00:46:26;100270.03;;;4.96;62.54
69214;BME280;56325;47.030;18.518;2023-04-07T00:49:01;100263.28;;;4.84;63.24
69214;BME280;56325;47.030;18.518;2023-04-07T00:51:35;100279.81;;;4.93;63.06
69214;BME280;56325;47.030;18.518;2023-04-07T00:54:11;100282.13;;;4.75;62.90
69214;BME280;56325;47.030;18.518;2023-04-07T00:56:46;100264.72;;;4.89;62.34
69214;BME280;56325;47.030;18.518;2023-04-07T00:59:20;100269.97;;;5.00;62.52
69214;BME280;56325;47.030;18.518;2023-04-07T01:02:02;100270.03;;;4.96;62.59
69214;BME280;56325;47.030;18.518;2023-04-07T01:04:44;100260.25;;;5.18;61.91
69214;BME280;56325;47.030;18.518;2023-04-07T01:07:22;100268.75;;;5.20;62.46
69214;BME280;56325;47.030;18.518;2023-04-07T01:10:03;100267.25;;;5.19;62.72
69214;BME280;56325;47.030;18.518;2023-04-07T01:12:43;100252.31;;;5.24;62.80
69214;BME280;56325;47.030;18.518;2023-04-07T01:15:22;100256.25;;;5.23;62.90
69214;BME280;56325;47.030;18.518;2023-04-07T01:18:07;100261.34;;;5.21;62.95
69214;BME280;56325;47.030;18.518;2023-04-07T01:20:45;100247.19;;;5.10;63.26
69214;BME280;56325;47.030;18.518;2023-04-07T01:23:31;100254.69;;;5.22;63.04
69214;BME280;56325;47.030;18.518;2023-04-07T01:26:19;100250.19;;;5.15;63.35
69214;BME280;56325;47.030;18.518;2023-04-07T01:31:48;100253.63;;;5.36;63.14
69214;BME280;56325;47.030;18.518;2023-04-07T01:34:25;100248.53;;;5.38;62.82
69214;BME280;56325;47.030;18.518;2023-04-07T01:37:00;100252.94;;;5.32;62.96
69214;BME280;56325;47.030;18.518;2023-04-07T01:39:37;100243.56;;;5.16;63.38
69214;BME280;56325;47.030;18.518;2023-04-07T01:42:12;100251.94;;;5.06;63.72
69214;BME280;56325;47.030;18.518;2023-04-07T01:44:49;100246.78;;;5.11;62.80
69214;BME280;56325;47.030;18.518;2023-04-07T01:47:25;100252.31;;;4.88;63.26
69214;BME280;56325;47.030;18.518;2023-04-07T01:50:04;100250.13;;;4.79;63.72
69214;BME280;56325;47.030;18.518;2023-04-07T01:52:41;100254.50;;;4.53;64.57
69214;BME280;56325;47.030;18.518;2023-04-07T01:55:16;100247.37;;;4.59;64.74
69214;BME280;56325;47.030;18.518;2023-04-07T01:57:52;100255.34;;;4.50;65.30
69214;BME280;56325;47.030;18.518;2023-04-07T02:00:27;100249.31;;;4.39;65.66
69214;BME280;56325;47.030;18.518;2023-04-07T02:03:09;100252.84;;;4.16;66.71
69214;BME280;56325;47.030;18.518;2023-04-07T02:05:45;100252.91;;;4.13;67.22
69214;BME280;56325;47.030;18.518;2023-04-07T02:08:22;100260.81;;;4.27;67.30
69214;BME280;56325;47.030;18.518;2023-04-07T02:10:57;100261.37;;;4.38;67.20
69214;BME280;56325;47.030;18.518;2023-04-07T02:13:36;100257.47;;;4.39;67.43
69214;BME280;56325;47.030;18.518;2023-04-07T02:16:14;100258.09;;;4.27;68.28
69214;BME280;56325;47.030;18.518;2023-04-07T02:18:51;100258.31;;;4.36;68.35
69214;BME280;56325;47.030;18.518;2023-04-07T02:21:26;100257.94;;;4.34;69.12
69214;BME280;56325;47.030;18.518;2023-04-07T02:24:05;100253.22;;;4.38;68.48
69214;BME280;56325;47.030;18.518;2023-04-07T02:26:41;100250.87;;;4.60;68.33
69214;BME280;56325;47.030;18.518;2023-04-07T02:29:16;100255.47;;;4.43;68.46
69214;BME280;56325;47.030;18.518;2023-04-07T02:31:50;100243.84;;;4.62;67.61
69214;BME280;56325;47.030;18.518;2023-04-07T02:34:27;100261.47;;;4.54;68.25
69214;BME280;56325;47.030;18.518;2023-04-07T02:37:01;100256.28;;;4.40;68.83
69214;BME280;56325;47.030;18.518;2023-04-07T02:39:36;100260.91;;;4.43;68.46
69214;BME280;56325;47.030;18.518;2023-04-07T02:42:10;100250.22;;;4.33;69.09
69214;BME280;56325;47.030;18.518;2023-04-07T02:44:45;100251.75;;;4.34;69.49
69214;BME280;56325;47.030;18.518;2023-04-07T02:47:19;100254.91;;;4.32;69.63
69214;BME280;56325;47.030;18.518;2023-04-07T02:49:56;100245.47;;;4.37;69.62
69214;BME280;56325;47.030;18.518;2023-04-07T02:52:30;100248.03;;;4.24;70.10
69214;BME280;56325;47.030;18.518;2023-04-07T02:55:07;100246.09;;;4.44;69.39
69214;BME280;56325;47.030;18.518;2023-04-07T02:57:41;100249.53;;;4.28;69.75
69214;BME280;56325;47.030;18.518;2023-04-07T03:00:17;100256.88;;;4.51;69.05
69214;BME280;56325;47.030;18.518;2023-04-07T03:02:52;100251.38;;;4.55;69.70
69214;BME280;56325;47.030;18.518;2023-04-07T03:05:28;100245.84;;;4.58;69.39
69214;BME280;56325;47.030;18.518;2023-04-07T03:08:04;100251.44;;;4.51;69.32
69214;BME280;56325;47.030;18.518;2023-04-07T03:10:39;100253.28;;;4.35;69.67
69214;BME280;56325;47.030;18.518;2023-04-07T03:13:14;100252.38;;;4.41;69.43
69214;BME280;56325;47.030;18.518;2023-04-07T03:15:51;100242.44;;;4.54;69.41
69214;BME280;56325;47.030;18.518;2023-04-07T03:18:26;100246.69;;;4.55;69.66
69214;BME280;56325;47.030;18.518;2023-04-07T03:21:04;100245.22;;;4.51;69.71
69214;BME280;56325;47.030;18.518;2023-04-07T03:23:39;100240.66;;;4.44;70.37
69214;BME280;56325;47.030;18.518;2023-04-07T03:26:13;100248.34;;;4.49;70.30
69214;BME280;56325;47.030;18.518;2023-04-07T03:28:48;100253.91;;;4.42;71.15
69214;BME280;56325;47.030;18.518;2023-04-07T03:31:24;100254.50;;;4.53;71.19
69214;BME280;56325;47.030;18.518;2023-04-07T03:33:59;100242.72;;;4.60;71.78
69214;BME280;56325;47.030;18.518;2023-04-07T03:36:35;100250.78;;;4.44;72.10
69214;BME280;56325;47.030;18.518;2023-04-07T03:39:10;100250.37;;;4.45;73.02
69214;BME280;56325;47.030;18.518;2023-04-07T03:41:45;100252.25;;;4.48;73.30
69214;BME280;56325;47.030;18.518;2023-04-07T03:44:19;100249.00;;;4.34;73.03
69214;BME280;56325;47.030;18.518;2023-04-07T03:46:55;100251.25;;;4.19;74.17
69214;BME280;56325;47.030;18.518;2023-04-07T03:49:30;100246.87;;;4.25;74.24
69214;BME280;56325;47.030;18.518;2023-04-07T03:52:06;100248.03;;;4.24;74.39
69214;BME280;56325;47.030;18.518;2023-04-07T03:54:41;100251.69;;;4.37;74.33
69214;BME280;56325;47.030;18.518;2023-04-07T03:57:16;100250.00;;;4.00;75.95
69214;BME280;56325;47.030;18.518;2023-04-07T03:59:51;100263.72;;;3.66;77.77
69214;BME280;56325;47.030;18.518;2023-04-07T04:02:26;100264.94;;;3.61;79.50
69214;BME280;56325;47.030;18.518;2023-04-07T04:05:03;100269.56;;;3.38;81.60
69214;BME280;56325;47.030;18.518;2023-04-07T04:07:39;100265.62;;;3.69;80.89
69214;BME280;56325;47.030;18.518;2023-04-07T04:10:14;100260.63;;;3.64;81.52
69214;BME280;56325;47.030;18.518;2023-04-07T04:12:51;100265.50;;;3.76;81.24
69214;BME280;56325;47.030;18.518;2023-04-07T04:15:26;100263.00;;;3.89;80.88
69214;BME280;56325;47.030;18.518;2023-04-07T04:18:01;100268.63;;;4.02;79.77
69214;BME280;56325;47.030;18.518;2023-04-07T04:20:36;100269.78;;;3.77;81.24
69214;BME280;56325;47.030;18.518;2023-04-07T04:23:12;100265.31;;;3.90;80.59
69214;BME280;56325;47.030;18.518;2023-04-07T04:25:47;100258.91;;;3.77;81.16
69214;BME280;56325;47.030;18.518;2023-04-07T04:28:21;100273.47;;;3.90;81.15
69214;BME280;56325;47.030;18.518;2023-04-07T04:30:56;100263.41;;;3.87;80.35
69214;BME280;56325;47.030;18.518;2023-04-07T04:33:32;100272.97;;;3.72;81.16
69214;BME280;56325;47.030;18.518;2023-04-07T04:36:07;100265.88;;;3.78;81.41
69214;BME280;56325;47.030;18.518;2023-04-07T04:38:43;100264.59;;;3.86;81.61
69214;BME280;56325;47.030;18.518;2023-04-07T04:41:19;100269.47;;;3.72;81.59
69214;BME280;56325;47.030;18.518;2023-04-07T04:43:53;100267.22;;;3.67;81.81
69214;BME280;56325;47.030;18.518;2023-04-07T04:46:29;100259.81;;;3.67;82.28
69214;BME280;56325;47.030;18.518;2023-04-07T04:49:04;100278.28;;;3.79;83.18
69214;BME280;56325;47.030;18.518;2023-04-07T04:51:39;100280.41;;;3.68;83.87
69214;BME280;56325;47.030;18.518;2023-04-07T04:54:19;100279.19;;;3.46;83.94
69214;BME280;56325;47.030;18.518;2023-04-07T04:56:54;100283.34;;;3.50;83.92
69214;BME280;56325;47.030;18.518;2023-04-07T04:59:30;100285.03;;;3.44;84.81
69214;BME280;56325;47.030;18.518;2023-04-07T05:02:06;100288.59;;;3.38;85.10
69214;BME280;56325;47.030;18.518;2023-04-07T05:04:40;100292.66;;;3.53;84.85
69214;BME280;56325;47.030;18.518;2023-04-07T05:07:17;100293.84;;;3.21;85.89
69214;BME280;56325;47.030;18.518;2023-04-07T05:09:56;100298.28;;;3.39;85.45
69214;BME280;56325;47.030;18.518;2023-04-07T05:12:31;100300.19;;;3.42;85.86
69214;BME280;56325;47.030;18.518;2023-04-07T05:15:07;100299.84;;;3.40;85.58
69214;BME280;56325;47.030;18.518;2023-04-07T05:17:42;100294.75;;;3.42;85.17
69214;BME280;56325;47.030;18.518;2023-04-07T05:20:25;100290.44;;;3.14;86.58
69214;BME280;56325;47.030;18.518;2023-04-07T05:22:59;100301.31;;;3.44;86.26
69214;BME280;56325;47.030;18.518;2023-04-07T05:25:51;100295.22;;;3.37;85.87
69214;BME280;56325;47.030;18.518;2023-04-07T05:28:29;100298.97;;;3.46;85.33
69214;BME280;56325;47.030;18.518;2023-04-07T05:31:05;100304.63;;;3.28;86.46
69214;BME280;56325;47.030;18.518;2023-04-07T05:33:40;100312.28;;;3.37;86.87
69214;BME280;56325;47.030;18.518;2023-04-07T05:36:20;100299.16;;;5.39;97.85
69214;BME280;56325;47.030;18.518;2023-04-07T05:38:57;100301.16;;;5.54;88.05
69214;BME280;56325;47.030;18.518;2023-04-07T05:41:34;100309.00;;;4.30;84.06
69214;BME280;56325;47.030;18.518;2023-04-07T05:44:08;100310.66;;;3.97;84.97
69214;BME280;56325;47.030;18.518;2023-04-07T05:46:47;100311.53;;;3.90;85.57
69214;BME280;56325;47.030;18.518;2023-04-07T05:49:26;100325.97;;;3.87;85.42
69214;BME280;56325;47.030;18.518;2023-04-07T05:52:04;100324.31;;;3.67;85.97
69214;BME280;56325;47.030;18.518;2023-04-07T05:54:42;100332.06;;;3.68;85.61
69214;BME280;56325;47.030;18.518;2023-04-07T05:57:20;100323.53;;;3.66;85.56
69214;BME280;56325;47.030;18.518;2023-04-07T05:59:57;100329.75;;;3.67;86.02
69214;BME280;56325;47.030;18.518;2023-04-07T06:02:53;100315.56;;;4.33;83.88
69214;BME280;56325;47.030;18.518;2023-04-07T06:05:34;100315.56;;;4.33;83.88
69214;BME280;56325;47.030;18.518;2023-04-07T06:08:09;100316.91;;;3.67;85.95
69214;BME280;56325;47.030;18.518;2023-04-07T06:10:44;100323.25;;;3.87;85.70
69214;BME280;56325;47.030;18.518;2023-04-07T06:13:18;100319.91;;;3.76;86.29
69214;BME280;56325;47.030;18.518;2023-04-07T06:15:53;100321.34;;;3.84;86.20
69214;BME280;56325;47.030;18.518;2023-04-07T06:18:30;100319.84;;;4.07;85.04
69214;BME280;56325;47.030;18.518;2023-04-07T06:21:05;100321.56;;;3.97;85.06
69214;BME280;56325;47.030;18.518;2023-04-07T06:23:39;100319.19;;;3.99;84.27
69214;BME280;56325;47.030;18.518;2023-04-07T06:26:14;100315.19;;;4.07;84.06
69214;BME280;56325;47.030;18.518;2023-04-07T06:28:48;100316.16;;;3.93;84.25
69214;BME280;56325;47.030;18.518;2023-04-07T06:31:24;100318.37;;;4.02;84.31
69214;BME280;56325;47.030;18.518;2023-04-07T06:34:00;100317.12;;;4.07;84.95
69214;BME280;56325;47.030;18.518;2023-04-07T06:36:35;100314.06;;;4.05;85.09
69214;BME280;56325;47.030;18.518;2023-04-07T06:39:10;100301.56;;;4.07;85.31
69214;BME280;56325;47.030;18.518;2023-04-07T06:41:45;100309.03;;;4.03;85.66
69214;BME280;56325;47.030;18.518;2023-04-07T06:44:19;100309.09;;;4.23;84.83
69214;BME280;56325;47.030;18.518;2023-04-07T06:46:54;100317.16;;;4.30;84.61
69214;BME280;56325;47.030;18.518;2023-04-07T06:49:30;100317.63;;;4.25;84.14
69214;BME280;56325;47.030;18.518;2023-04-07T06:52:05;100320.09;;;4.16;84.12
69214;BME280;56325;47.030;18.518;2023-04-07T06:54:40;100314.97;;;4.88;90.75
69214;BME280;56325;47.030;18.518;2023-04-07T06:57:15;100310.31;;;5.64;84.90
69214;BME280;56325;47.030;18.518;2023-04-07T06:59:50;100311.06;;;7.07;94.93
69214;BME280;56325;47.030;18.518;2023-04-07T07:02:25;100317.81;;;5.96;79.76
69214;BME280;56325;47.030;18.518;2023-04-07T07:05:01;100324.78;;;5.61;79.63
69214;BME280;56325;47.030;18.518;2023-04-07T07:07:37;100334.16;;;5.60;79.47
69214;BME280;56325;47.030;18.518;2023-04-07T07:10:11;100331.87;;;5.39;80.15
69214;BME280;56325;47.030;18.518;2023-04-07T07:12:46;100336.91;;;5.20;79.51
69214;BME280;56325;47.030;18.518;2023-04-07T07:15:20;100332.91;;;5.25;79.75
69214;BME280;56325;47.030;18.518;2023-04-07T07:17:55;100337.81;;;4.94;80.00
69214;BME280;56325;47.030;18.518;2023-04-07T07:20:31;100340.12;;;4.96;80.15
69214;BME280;56325;47.030;18.518;2023-04-07T07:23:05;100352.50;;;5.00;78.02
69214;BME280;56325;47.030;18.518;2023-04-07T07:25:40;100350.91;;;5.03;79.35
69214;BME280;56325;47.030;18.518;2023-04-07T07:28:15;100348.03;;;5.10;78.84
69214;BME280;56325;47.030;18.518;2023-04-07T07:30:50;100351.34;;;4.78;79.24
69214;BME280;56325;47.030;18.518;2023-04-07T07:33:25;100355.97;;;4.81;80.31
69214;BME280;56325;47.030;18.518;2023-04-07T07:36:01;100355.13;;;4.84;78.81
69214;BME280;56325;47.030;18.518;2023-04-07T07:38:35;100356.25;;;4.86;79.50
69214;BME280;56325;47.030;18.518;2023-04-07T07:41:10;100354.25;;;4.67;79.88
69214;BME280;56325;47.030;18.518;2023-04-07T07:43:45;100357.31;;;4.92;80.17
69214;BME280;56325;47.030;18.518;2023-04-07T07:46:20;100351.09;;;4.92;79.05
69214;BME280;56325;47.030;18.518;2023-04-07T07:48:56;100359.78;;;6.02;90.14
69214;BME280;56325;47.030;18.518;2023-04-07T07:51:32;100343.25;;;9.99;95.35
69214;BME280;56325;47.030;18.518;2023-04-07T07:54:07;100339.72;;;9.99;81.47
69214;BME280;56325;47.030;18.518;2023-04-07T07:56:43;100348.84;;;8.05;71.08
69214;BME280;56325;47.030;18.518;2023-04-07T07:59:17;100368.56;;;6.58;73.54
69214;BME280;56325;47.030;18.518;2023-04-07T08:01:52;100373.69;;;6.56;73.02
69214;BME280;56325;47.030;18.518;2023-04-07T08:04:27;100373.50;;;5.99;74.25
69214;BME280;56325;47.030;18.518;2023-04-07T08:07:03;100376.69;;;5.57;76.47
69214;BME280;56325;47.030;18.518;2023-04-07T08:09:37;100378.94;;;5.43;75.76
69214;BME280;56325;47.030;18.518;2023-04-07T08:12:12;100381.72;;;5.39;76.75
69214;BME280;56325;47.030;18.518;2023-04-07T08:14:46;100386.75;;;5.21;75.86
69214;BME280;56325;47.030;18.518;2023-04-07T08:17:21;100384.72;;;5.25;76.94
69214;BME280;56325;47.030;18.518;2023-04-07T08:19:59;100390.94;;;5.25;77.64
69214;BME280;56325;47.030;18.518;2023-04-07T08:22:35;100392.34;;;5.34;77.18
69214;BME280;56325;47.030;18.518;2023-04-07T08:25:10;100394.31;;;5.33;77.11
69214;BME280;56325;47.030;18.518;2023-04-07T08:27:44;100391.28;;;5.27;77.90
69214;BME280;56325;47.030;18.518;2023-04-07T08:30:19;100387.47;;;5.45;76.59
69214;BME280;56325;47.030;18.518;2023-04-07T08:32:54;100394.59;;;5.39;76.92
69214;BME280;56325;47.030;18.518;2023-04-07T08:35:29;100398.66;;;5.50;75.60
69214;BME280;56325;47.030;18.518;2023-04-07T08:38:05;100403.19;;;5.37;76.50
69214;BME280;56325;47.030;18.518;2023-04-07T08:40:42;100399.91;;;5.46;76.37
69214;BME280;56325;47.030;18.518;2023-04-07T08:43:17;100380.00;;;9.40;94.37
69214;BME280;56325;47.030;18.518;2023-04-07T08:45:56;100378.09;;;10.61;86.25
69214;BME280;56325;47.030;18.518;2023-04-07T08:48:31;100388.50;;;8.98;68.85
69214;BME280;56325;47.030;18.518;2023-04-07T08:51:07;100393.53;;;7.89;69.66
69214;BME280;56325;47.030;18.518;2023-04-07T08:53:47;100408.53;;;6.85;70.57
69214;BME280;56325;47.030;18.518;2023-04-07T08:56:23;100399.47;;;6.55;71.39
69214;BME280;56325;47.030;18.518;2023-04-07T08:58:59;100408.34;;;6.27;73.03
69214;BME280;56325;47.030;18.518;2023-04-07T09:01:35;100399.13;;;6.21;73.94
69214;BME280;56325;47.030;18.518;2023-04-07T09:04:10;100407.38;;;6.01;74.65
69214;BME280;56325;47.030;18.518;2023-04-07T09:06:45;100402.91;;;5.71;77.02
69214;BME280;56325;47.030;18.518;2023-04-07T09:09:20;100395.41;;;5.75;76.61
69214;BME280;56325;47.030;18.518;2023-04-07T09:11:56;100408.22;;;5.78;77.75
69214;BME280;56325;47.030;18.518;2023-04-07T09:14:31;100411.78;;;5.95;76.44
69214;BME280;56325;47.030;18.518;2023-04-07T09:17:06;100409.56;;;5.70;77.56
69214;BME280;56325;47.030;18.518;2023-04-07T09:19:43;100413.47;;;5.69;77.85
69214;BME280;56325;47.030;18.518;2023-04-07T09:22:33;100408.22;;;5.78;77.83
69214;BME280;56325;47.030;18.518;2023-04-07T09:25:16;100406.19;;;5.82;78.25
69214;BME280;56325;47.030;18.518;2023-04-07T09:27:59;100419.47;;;5.80;77.57
69214;BME280;56325;47.030;18.518;2023-04-07T09:30:34;100410.31;;;5.71;79.06
69214;BME280;56325;47.030;18.518;2023-04-07T09:33:15;100417.19;;;5.59;79.09
69214;BME280;56325;47.030;18.518;2023-04-07T09:35:59;100417.66;;;5.34;79.72
69214;BME280;56325;47.030;18.518;2023-04-07T09:38:35;100419.28;;;5.71;78.51
69214;BME280;56325;47.030;18.518;2023-04-07T09:41:12;100425.84;;;5.54;79.15
69214;BME280;56325;47.030;18.518;2023-04-07T09:43:47;100424.50;;;5.22;80.68
69214;BME280;56325;47.030;18.518;2023-04-07T09:46:22;100426.47;;;5.62;79.32
69214;BME280;56325;47.030;18.518;2023-04-07T09:49:01;100426.69;;;5.51;79.87
69214;BME280;56325;47.030;18.518;2023-04-07T09:51:38;100429.34;;;5.54;79.41
69214;BME280;56325;47.030;18.518;2023-04-07T09:54:32;100423.53;;;5.72;79.20
69214;BME280;56325;47.030;18.518;2023-04-07T09:57:10;100424.09;;;5.83;80.38
69214;BME280;56325;47.030;18.518;2023-04-07T09:59:46;100423.47;;;5.96;78.47
69214;BME280;56325;47.030;18.518;2023-04-07T10:02:22;100421.59;;;5.93;76.90
69214;BME280;56325;47.030;18.518;2023-04-07T10:04:59;100424.16;;;5.80;77.36
69214;BME280;56325;47.030;18.518;2023-04-07T10:07:34;100419.75;;;5.86;77.51
69214;BME280;56325;47.030;18.518;2023-04-07T10:10:10;100425.78;;;5.77;76.73
69214;BME280;56325;47.030;18.518;2023-04-07T10:12:48;100426.91;;;5.60;78.02
69214;BME280;56325;47.030;18.518;2023-04-07T10:15:23;100415.12;;;5.83;77.78
69214;BME280;56325;47.030;18.518;2023-04-07T10:17:58;100419.28;;;6.60;85.03
69214;BME280;56325;47.030;18.518;2023-04-07T10:20:37;100411.38;;;9.17;95.89
69214;BME280;56325;47.030;18.518;2023-04-07T10:23:18;100405.56;;;9.59;80.57
69214;BME280;56325;47.030;18.518;2023-04-07T10:25:55;100412.59;;;7.93;72.86
69214;BME280;56325;47.030;18.518;2023-04-07T10:28:36;100418.53;;;7.20;73.02
69214;BME280;56325;47.030;18.518;2023-04-07T10:31:11;100416.91;;;6.62;76.26
69214;BME280;56325;47.030;18.518;2023-04-07T10:33:48;100416.91;;;6.45;76.26
69214;BME280;56325;47.030;18.518;2023-04-07T10:36:23;100415.06;;;6.22;77.50
69214;BME280;56325;47.030;18.518;2023-04-07T10:39:25;100413.59;;;6.02;79.84
69214;BME280;56325;47.030;18.518;2023-04-07T10:42:00;100425.22;;;6.06;78.92
69214;BME280;56325;47.030;18.518;2023-04-07T10:44:46;100419.06;;;6.18;79.07
69214;BME280;56325;47.030;18.518;2023-04-07T10:47:24;100422.16;;;6.20;78.81
69214;BME280;56325;47.030;18.518;2023-04-07T10:50:18;100412.75;;;6.21;79.27
69214;BME280;56325;47.030;18.518;2023-04-07T10:53:05;100403.81;;;6.20;78.58
69214;BME280;56325;47.030;18.518;2023-04-07T10:55:40;100421.50;;;6.48;80.13
69214;BME280;56325;47.030;18.518;2023-04-07T10:58:21;100418.94;;;6.74;80.16
69214;BME280;56325;47.030;18.518;2023-04-07T11:01:31;100423.56;;;6.44;77.08
69214;BME280;56325;47.030;18.518;2023-04-07T11:04:07;100419.41;;;6.20;76.98
69214;BME280;56325;47.030;18.518;2023-04-07T11:06:46;100404.81;;;8.67;94.81
69214;BME280;56325;47.030;18.518;2023-04-07T11:09:21;100420.75;;;7.54;79.17
69214;BME280;56325;47.030;18.518;2023-04-07T11:11:55;100414.75;;;7.72;78.70
69214;BME280;56325;47.030;18.518;2023-04-07T11:14:31;100414.31;;;7.32;78.38
69214;BME280;56325;47.030;18.518;2023-04-07T11:17:13;100419.34;;;7.34;76.40
69214;BME280;56325;47.030;18.518;2023-04-07T11:19:52;100418.19;;;7.18;77.39
69214;BME280;56325;47.030;18.518;2023-04-07T11:22:26;100418.94;;;6.74;77.07
69214;BME280;56325;47.030;18.518;2023-04-07T11:25:04;100418.72;;;7.13;75.51
69214;BME280;56325;47.030;18.518;2023-04-07T11:27:53;100416.16;;;7.06;75.96
69214;BME280;56325;47.030;18.518;2023-04-07T11:30:28;100421.84;;;6.83;75.90
69214;BME280;56325;47.030;18.518;2023-04-07T11:33:06;100415.03;;;6.75;78.16
69214;BME280;56325;47.030;18.518;2023-04-07T11:35:50;100419.38;;;6.88;77.65
69214;BME280;56325;47.030;18.518;2023-04-07T11:38:26;100410.50;;;7.13;77.57
69214;BME280;56325;47.030;18.518;2023-04-07T11:41:09;100411.09;;;7.21;75.95
69214;BME280;56325;47.030;18.518;2023-04-07T11:43:44;100413.69;;;6.96;77.31
69214;BME280;56325;47.030;18.518;2023-04-07T11:46:19;100403.53;;;8.59;93.67
69214;BME280;56325;47.030;18.518;2023-04-07T11:49:07;100395.03;;;9.57;82.57
69214;BME280;56325;47.030;18.518;2023-04-07T11:51:43;100394.78;;;8.86;84.93
69214;BME280;56325;47.030;18.518;2023-04-07T11:54:18;100399.63;;;9.60;74.39
69214;BME280;56325;47.030;18.518;2023-04-07T11:56:53;100391.12;;;10.20;79.69
69214;BME280;56325;47.030;18.518;2023-04-07T11:59:28;100390.72;;;8.43;69.86
69214;BME280;56325;47.030;18.518;2023-04-07T12:02:03;100408.53;;;7.84;71.77
69214;BME280;56325;47.030;18.518;2023-04-07T12:04:57;100407.34;;;7.44;73.00
69214;BME280;56325;47.030;18.518;2023-04-07T12:07:32;100415.56;;;6.99;74.80
69214;BME280;56325;47.030;18.518;2023-04-07T12:10:17;100412.63;;;6.77;73.83
69214;BME280;56325;47.030;18.518;2023-04-07T12:12:52;100413.91;;;6.72;73.29
69214;BME280;56325;47.030;18.518;2023-04-07T12:15:29;100420.13;;;6.89;73.44
69214;BME280;56325;47.030;18.518;2023-04-07T12:18:04;100412.44;;;6.84;73.55
69214;BME280;56325;47.030;18.518;2023-04-07T12:20:40;100412.63;;;6.77;75.75
69214;BME280;56325;47.030;18.518;2023-04-07T12:23:15;100414.81;;;6.98;74.62
69214;BME280;56325;47.030;18.518;2023-04-07T12:25:50;100412.84;;;6.99;74.37
69214;BME280;56325;47.030;18.518;2023-04-07T12:28:24;100402.06;;;7.08;72.32
69214;BME280;56325;47.030;18.518;2023-04-07T12:30:59;100407.00;;;7.13;72.08
69214;BME280;56325;47.030;18.518;2023-04-07T12:33:34;100410.31;;;7.20;73.48
69214;BME280;56325;47.030;18.518;2023-04-07T12:36:10;100402.13;;;7.20;71.81
69214;BME280;56325;47.030;18.518;2023-04-07T12:38:45;100401.31;;;7.36;73.00
69214;BME280;56325;47.030;18.518;2023-04-07T12:41:19;100407.91;;;7.22;72.58
69214;BME280;56325;47.030;18.518;2023-04-07T12:43:54;100406.72;;;7.23;73.08
69214;BME280;56325;47.030;18.518;2023-04-07T12:46:28;100403.75;;;7.18;72.93
69214;BME280;56325;47.030;18.518;2023-04-07T12:49:03;100410.66;;;7.22;72.76
69214;BME280;56325;47.030;18.518;2023-04-07T12:51:39;100402.22;;;7.46;72.84
69214;BME280;56325;47.030;18.518;2023-04-07T12:54:14;100409.41;;;7.40;72.13
69214;BME280;56325;47.030;18.518;2023-04-07T12:56:48;100414.22;;;7.36;72.55
69214;BME280;56325;47.030;18.518;2023-04-07T12:59:23;100414.56;;;7.38;73.17
69214;BME280;56325;47.030;18.518;2023-04-07T13:01:58;100417.22;;;7.54;70.45
69214;BME280;56325;47.030;18.518;2023-04-07T13:04:33;100416.31;;;7.73;71.44
69214;BME280;56325;47.030;18.518;2023-04-07T13:07:10;100423.59;;;7.64;70.84
69214;BME280;56325;47.030;18.518;2023-04-07T13:09:45;100409.69;;;7.58;70.96
69214;BME280;56325;47.030;18.518;2023-04-07T13:12:20;100401.72;;;7.35;70.90
69214;BME280;56325;47.030;18.518;2023-04-07T13:14:54;100413.13;;;7.75;71.13
69214;BME280;56325;47.030;18.518;2023-04-07T13:17:32;100406.81;;;7.49;71.36
69214;BME280;56325;47.030;18.518;2023-04-07T13:20:08;100401.44;;;7.45;72.18
69214;BME280;56325;47.030;18.518;2023-04-07T13:22:46;100403.88;;;7.56;72.15
69214;BME280;56325;47.030;18.518;2023-04-07T13:25:35;100407.09;;;7.67;70.16
69214;BME280;56325;47.030;18.518;2023-04-07T13:28:11;100403.81;;;7.31;71.42
69214;BME280;56325;47.030;18.518;2023-04-07T13:30:46;100404.50;;;7.18;71.27
69214;BME280;56325;47.030;18.518;2023-04-07T13:33:21;100413.72;;;7.24;70.44
69214;BME280;56325;47.030;18.518;2023-04-07T13:35:55;100404.69;;;7.11;70.92
69214;BME280;56325;47.030;18.518;2023-04-07T13:38:31;100393.50;;;8.78;89.44
69214;BME280;56325;47.030;18.518;2023-04-07T13:41:06;100395.56;;;9.96;78.95
69214;BME280;56325;47.030;18.518;2023-04-07T13:43:40;100397.03;;;9.35;68.11